sensor_id;sensor_type;location;lat;lon;timestamp;pressure;altitude;pressure_sealevel;temperature;humidity
21623;BME280;10973;46.706;12.340;2022-08-01T00:00:08;87753.31;;;17.05;54.09
21623;BME280;10973;46.706;12.340;2022-08-01T00:02:37;87753.69;;;17.04;54.29
21623;BME280;10973;46.706;12.340;2022-08-01T00:05:08;87751.84;;;17.01;54.44
21623;BME280;10973;46.706;12.340;2022-08-01T00:07:36;87743.88;;;16.97;54.51
21623;BME280;10973;46.706;12.340;2022-08-01T00:10:06;87746.91;;;16.99;54.60
21623;BME280;10973;46.706;12.340;2022-08-01T00:12:34;87743.09;;;17.00;54.65
21623;BME280;10973;46.706;12.340;2022-08-01T00:15:04;87743.25;;;16.86;54.70
21623;BME280;10973;46.706;12.340;2022-08-01T00:17:32;87746.56;;;16.97;54.27
21623;BME280;10973;46.706;12.340;2022-08-01T00:20:00;87749.56;;;16.99;54.69
21623;BME280;10973;46.706;12.340;2022-08-01T00:22:27;87746.56;;;16.97;54.25
21623;BME280;10973;46.706;12.340;2022-08-01T00:24:54;87741.22;;;16.97;54.27
21623;BME280;10973;46.706;12.340;2022-08-01T00:27:21;87740.44;;;17.00;54.78
21623;BME280;10973;46.706;12.340;2022-08-01T00:29:48;87738.53;;;17.01;54.72
21623;BME280;10973;46.706;12.340;2022-08-01T00:32:36;87744.56;;;17.05;54.42
21623;BME280;10973;46.706;12.340;2022-08-01T00:35:03;87740.75;;;17.06;54.24
21623;BME280;10973;46.706;12.340;2022-08-01T00:37:30;87741.84;;;17.08;54.24
21623;BME280;10973;46.706;12.340;2022-08-01T00:39:58;87743.09;;;17.00;54.09
21623;BME280;10973;46.706;12.340;2022-08-01T00:42:25;87745.72;;;17.04;54.11
21623;BME280;10973;46.706;12.340;2022-08-01T00:44:52;87746.88;;;17.03;54.52
21623;BME280;10973;46.706;12.340;2022-08-01T00:47:19;87752.63;;;16.98;54.05
21623;BME280;10973;46.706;12.340;2022-08-01T00:49:47;87745.41;;;16.98;54.28
21623;BME280;10973;46.706;12.340;2022-08-01T00:52:14;87740.09;;;16.98;54.30
21623;BME280;10973;46.706;12.340;2022-08-01T00:54:42;87742.41;;;16.93;54.40
21623;BME280;10973;46.706;12.340;2022-08-01T00:57:11;87743.97;;;16.90;54.66
21623;BME280;10973;46.706;12.340;2022-08-01T00:59:41;87739.47;;;16.87;54.53
21623;BME280;10973;46.706;12.340;2022-08-01T01:02:09;87749.00;;;16.81;54.30
21623;BME280;10973;46.706;12.340;2022-08-01T01:04:42;87747.13;;;16.82;54.49
21623;BME280;10973;46.706;12.340;2022-08-01T01:07:25;87739.97;;;16.75;54.62
21623;BME280;10973;46.706;12.340;2022-08-01T01:13:20;87742.41;;;16.63;54.65
21623;BME280;10973;46.706;12.340;2022-08-01T01:16:13;87735.97;;;16.60;54.78
21623;BME280;10973;46.706;12.340;2022-08-01T01:18:53;87735.63;;;16.55;54.45
21623;BME280;10973;46.706;12.340;2022-08-01T01:30:02;87741.47;;;16.39;54.39
21623;BME280;10973;46.706;12.340;2022-08-01T01:32:41;87749.06;;;16.37;54.51
21623;BME280;10973;46.706;12.340;2022-08-01T01:35:17;87723.25;;;16.34;54.96
21623;BME280;10973;46.706;12.340;2022-08-01T01:37:51;87738.88;;;16.32;55.09
21623;BME280;10973;46.706;12.340;2022-08-01T01:40:21;87738.53;;;16.26;55.31
21623;BME280;10973;46.706;12.340;2022-08-01T01:42:51;87735.91;;;16.23;55.05
21623;BME280;10973;46.706;12.340;2022-08-01T01:45:23;87739.75;;;16.18;55.21
21623;BME280;10973;46.706;12.340;2022-08-01T01:47:53;87737.56;;;16.10;55.09
21623;BME280;10973;46.706;12.340;2022-08-01T01:50:22;87729.22;;;16.08;55.17
21623;BME280;10973;46.706;12.340;2022-08-01T01:52:52;87742.88;;;16.06;55.26
21623;BME280;10973;46.706;12.340;2022-08-01T01:55:41;87742.63;;;15.94;55.30
21623;BME280;10973;46.706;12.340;2022-08-01T01:58:17;87737.72;;;15.92;55.33
21623;BME280;10973;46.706;12.340;2022-08-01T02:00:48;87736.53;;;15.93;55.52
21623;BME280;10973;46.706;12.340;2022-08-01T02:03:18;87735.78;;;15.93;55.59
21623;BME280;10973;46.706;12.340;2022-08-01T02:05:47;87737.31;;;15.90;55.52
21623;BME280;10973;46.706;12.340;2022-08-01T02:08:17;87738.09;;;15.91;55.64
21623;BME280;10973;46.706;12.340;2022-08-01T02:10:45;87738.06;;;15.94;55.87
21623;BME280;10973;46.706;12.340;2022-08-01T02:13:14;87741.91;;;15.90;55.88
21623;BME280;10973;46.706;12.340;2022-08-01T02:15:41;87735.84;;;15.86;55.89
21623;BME280;10973;46.706;12.340;2022-08-01T02:18:26;87739.19;;;15.93;56.03
21623;BME280;10973;46.706;12.340;2022-08-01T02:20:55;87739.25;;;15.90;56.14
21623;BME280;10973;46.706;12.340;2022-08-01T02:23:31;87732.41;;;15.92;55.82
21623;BME280;10973;46.706;12.340;2022-08-01T02:26:03;87733.50;;;15.95;56.11
21623;BME280;10973;46.706;12.340;2022-08-01T02:28:53;87723.66;;;15.92;55.84
21623;BME280;10973;46.706;12.340;2022-08-01T02:31:23;87728.94;;;15.95;56.02
21623;BME280;10973;46.706;12.340;2022-08-01T02:34:04;87732.31;;;15.99;56.12
21623;BME280;10973;46.706;12.340;2022-08-01T02:36:34;87726.63;;;15.97;56.33
21623;BME280;10973;46.706;12.340;2022-08-01T02:39:08;87727.03;;;15.96;56.62
21623;BME280;10973;46.706;12.340;2022-08-01T02:41:43;87724.75;;;15.98;56.79
21623;BME280;10973;46.706;12.340;2022-08-01T02:44:24;87720.59;;;15.97;56.77
21623;BME280;10973;46.706;12.340;2022-08-01T02:46:59;87724.38;;;15.96;56.58
21623;BME280;10973;46.706;12.340;2022-08-01T02:49:30;87726.25;;;15.99;56.19
21623;BME280;10973;46.706;12.340;2022-08-01T02:52:03;87720.19;;;15.98;56.14
21623;BME280;10973;46.706;12.340;2022-08-01T02:54:32;87720.59;;;15.97;56.20
21623;BME280;10973;46.706;12.340;2022-08-01T02:57:02;87714.47;;;16.00;56.13
21623;BME280;10973;46.706;12.340;2022-08-01T02:59:36;87710.66;;;16.01;56.20
21623;BME280;10973;46.706;12.340;2022-08-01T03:02:09;87725.19;;;15.89;56.17
21623;BME280;10973;46.706;12.340;2022-08-01T03:04:38;87724.78;;;15.91;56.16
21623;BME280;10973;46.706;12.340;2022-08-01T03:07:10;87719.88;;;15.89;56.35
21623;BME280;10973;46.706;12.340;2022-08-01T03:09:44;87718.00;;;15.86;56.01
21623;BME280;10973;46.706;12.340;2022-08-01T03:12:17;87717.22;;;15.86;56.22
21623;BME280;10973;46.706;12.340;2022-08-01T03:14:47;87714.22;;;15.84;56.39
21623;BME280;10973;46.706;12.340;2022-08-01T03:17:21;87715.78;;;15.78;56.23
21623;BME280;10973;46.706;12.340;2022-08-01T03:19:52;87721.09;;;15.78;56.02
21623;BME280;10973;46.706;12.340;2022-08-01T03:22:39;87722.28;;;15.73;56.24
21623;BME280;10973;46.706;12.340;2022-08-01T03:25:09;87721.94;;;15.71;56.25
21623;BME280;10973;46.706;12.340;2022-08-01T03:27:37;87724.97;;;15.69;56.07
21623;BME280;10973;46.706;12.340;2022-08-01T03:30:06;87718.53;;;15.67;56.25
21623;BME280;10973;46.706;12.340;2022-08-01T03:32:34;87709.44;;;15.64;56.55
21623;BME280;10973;46.706;12.340;2022-08-01T03:35:01;87709.09;;;15.59;56.40
21623;BME280;10973;46.706;12.340;2022-08-01T03:37:49;87710.28;;;15.54;56.19
21623;BME280;10973;46.706;12.340;2022-08-01T03:40:44;87713.34;;;15.49;56.36
21623;BME280;10973;46.706;12.340;2022-08-01T03:43:30;87708.47;;;15.44;56.44
21623;BME280;10973;46.706;12.340;2022-08-01T03:46:06;87714.13;;;15.43;56.41
21623;BME280;10973;46.706;12.340;2022-08-01T03:48:40;87719.81;;;15.41;56.55
21623;BME280;10973;46.706;12.340;2022-08-01T03:51:10;87716.81;;;15.36;56.54
21623;BME280;10973;46.706;12.340;2022-08-01T03:53:41;87727.81;;;15.38;56.11
21623;BME280;10973;46.706;12.340;2022-08-01T03:56:10;87729.72;;;15.34;56.50
21623;BME280;10973;46.706;12.340;2022-08-01T03:58:40;87732.44;;;15.27;56.43
21623;BME280;10973;46.706;12.340;2022-08-01T04:01:09;87722.94;;;15.29;56.54
21623;BME280;10973;46.706;12.340;2022-08-01T04:03:43;87715.38;;;15.28;56.51
21623;BME280;10973;46.706;12.340;2022-08-01T04:06:11;87714.25;;;15.25;56.59
21623;BME280;10973;46.706;12.340;2022-08-01T04:08:39;87717.28;;;15.24;56.68
21623;BME280;10973;46.706;12.340;2022-08-01T04:11:08;87721.84;;;15.20;56.51
21623;BME280;10973;46.706;12.340;2022-08-01T04:13:36;87719.19;;;15.20;56.58
21623;BME280;10973;46.706;12.340;2022-08-01T04:16:04;87728.72;;;15.17;56.60
21623;BME280;10973;46.706;12.340;2022-08-01T04:18:32;87727.94;;;15.13;56.41
21623;BME280;10973;46.706;12.340;2022-08-01T04:20:59;87729.88;;;15.13;56.61
21623;BME280;10973;46.706;12.340;2022-08-01T04:23:30;87736.34;;;15.08;56.26
21623;BME280;10973;46.706;12.340;2022-08-01T04:26:02;87740.88;;;15.11;56.46
21623;BME280;10973;46.706;12.340;2022-08-01T04:28:33;87739.72;;;15.09;56.54
21623;BME280;10973;46.706;12.340;2022-08-01T04:31:05;87736.72;;;15.07;56.77
21623;BME280;10973;46.706;12.340;2022-08-01T04:33:43;87732.56;;;15.02;56.98
21623;BME280;10973;46.706;12.340;2022-08-01T04:36:14;87732.97;;;15.00;57.01
21623;BME280;10973;46.706;12.340;2022-08-01T04:38:45;87740.16;;;15.00;57.23
21623;BME280;10973;46.706;12.340;2022-08-01T04:41:17;87734.53;;;14.94;57.28
21623;BME280;10973;46.706;12.340;2022-08-01T04:43:45;87737.91;;;14.98;57.10
21623;BME280;10973;46.706;12.340;2022-08-01T04:46:14;87731.06;;;14.97;57.40
21623;BME280;10973;46.706;12.340;2022-08-01T04:48:41;87740.19;;;14.93;57.51
21623;BME280;10973;46.706;12.340;2022-08-01T04:51:17;87743.59;;;14.93;57.04
21623;BME280;10973;46.706;12.340;2022-08-01T04:53:45;87736.41;;;14.94;57.16
21623;BME280;10973;46.706;12.340;2022-08-01T04:56:12;87734.88;;;14.96;57.35
21623;BME280;10973;46.706;12.340;2022-08-01T04:58:43;87737.53;;;14.96;57.22
21623;BME280;10973;46.706;12.340;2022-08-01T05:01:11;87737.16;;;14.91;57.05
21623;BME280;10973;46.706;12.340;2022-08-01T05:03:39;87744.00;;;14.92;57.02
21623;BME280;10973;46.706;12.340;2022-08-01T05:06:07;87737.56;;;14.89;57.33
21623;BME280;10973;46.706;12.340;2022-08-01T05:08:41;87730.75;;;14.92;57.54
21623;BME280;10973;46.706;12.340;2022-08-01T05:11:09;87731.09;;;14.90;57.53
21623;BME280;10973;46.706;12.340;2022-08-01T05:13:36;87734.91;;;14.89;57.45
21623;BME280;10973;46.706;12.340;2022-08-01T05:16:03;87720.13;;;14.92;57.60
21623;BME280;10973;46.706;12.340;2022-08-01T05:18:31;87707.59;;;14.96;57.67
21623;BME280;10973;46.706;12.340;2022-08-01T05:20:58;87717.03;;;14.97;57.74
21623;BME280;10973;46.706;12.340;2022-08-01T05:23:25;87721.97;;;14.95;57.53
21623;BME280;10973;46.706;12.340;2022-08-01T05:26:10;87722.38;;;14.93;57.56
21623;BME280;10973;46.706;12.340;2022-08-01T05:28:41;87724.28;;;14.96;57.62
21623;BME280;10973;46.706;12.340;2022-08-01T05:31:09;87719.69;;;14.97;57.71
21623;BME280;10973;46.706;12.340;2022-08-01T05:33:36;87723.09;;;15.01;57.69
21623;BME280;10973;46.706;12.340;2022-08-01T05:36:04;87735.22;;;15.02;57.65
21623;BME280;10973;46.706;12.340;2022-08-01T05:38:31;87728.00;;;15.06;57.62
21623;BME280;10973;46.706;12.340;2022-08-01T05:40:59;87727.63;;;15.08;57.95
21623;BME280;10973;46.706;12.340;2022-08-01T05:43:26;87720.78;;;15.10;57.97
21623;BME280;10973;46.706;12.340;2022-08-01T05:45:55;87726.06;;;15.17;57.84
21623;BME280;10973;46.706;12.340;2022-08-01T05:48:22;87730.13;;;15.29;57.88
21623;BME280;10973;46.706;12.340;2022-08-01T05:50:50;87724.41;;;15.37;57.91
21623;BME280;10973;46.706;12.340;2022-08-01T05:53:24;87721.75;;;15.44;57.93
21623;BME280;10973;46.706;12.340;2022-08-01T05:55:53;87720.13;;;15.57;57.81
21623;BME280;10973;46.706;12.340;2022-08-01T05:58:20;87717.03;;;15.66;57.70
21623;BME280;10973;46.706;12.340;2022-08-01T06:00:48;87714.66;;;15.79;57.64
21623;BME280;10973;46.706;12.340;2022-08-01T06:03:15;87711.50;;;15.91;57.52
21623;BME280;10973;46.706;12.340;2022-08-01T06:05:42;87714.09;;;16.01;57.12
21623;BME280;10973;46.706;12.340;2022-08-01T06:08:09;87718.13;;;16.13;57.27
21623;BME280;10973;46.706;12.340;2022-08-01T06:10:37;87716.53;;;16.22;57.16
21623;BME280;10973;46.706;12.340;2022-08-01T06:13:04;87711.13;;;16.33;56.63
21623;BME280;10973;46.706;12.340;2022-08-01T06:15:32;87715.56;;;16.43;56.50
21623;BME280;10973;46.706;12.340;2022-08-01T06:18:00;87712.44;;;16.55;56.48
21623;BME280;10973;46.706;12.340;2022-08-01T06:20:27;87719.91;;;16.67;56.39
21623;BME280;10973;46.706;12.340;2022-08-01T06:22:55;87709.91;;;16.78;56.39
21623;BME280;10973;46.706;12.340;2022-08-01T06:25:25;87719.28;;;16.90;56.35
21623;BME280;10973;46.706;12.340;2022-08-01T06:27:53;87715.31;;;17.01;55.97
21623;BME280;10973;46.706;12.340;2022-08-01T06:30:20;87715.94;;;17.13;55.11
21623;BME280;10973;46.706;12.340;2022-08-01T06:32:47;87712.38;;;17.23;54.46
21623;BME280;10973;46.706;12.340;2022-08-01T06:35:15;87711.88;;;17.31;53.58
21623;BME280;10973;46.706;12.340;2022-08-01T06:37:43;87718.56;;;17.43;52.75
21623;BME280;10973;46.706;12.340;2022-08-01T06:40:11;87713.88;;;17.54;52.66
21623;BME280;10973;46.706;12.340;2022-08-01T06:42:44;87710.31;;;17.64;52.86
21623;BME280;10973;46.706;12.340;2022-08-01T06:45:14;87705.56;;;17.75;53.04
21623;BME280;10973;46.706;12.340;2022-08-01T06:47:44;87708.47;;;17.84;53.06
21623;BME280;10973;46.706;12.340;2022-08-01T06:50:17;87714.81;;;17.94;52.45
21623;BME280;10973;46.706;12.340;2022-08-01T06:52:45;87719.97;;;18.04;51.80
21623;BME280;10973;46.706;12.340;2022-08-01T06:55:12;87713.38;;;18.12;51.74
21623;BME280;10973;46.706;12.340;2022-08-01T06:57:48;87710.94;;;18.21;51.06
21623;BME280;10973;46.706;12.340;2022-08-01T07:00:16;87708.53;;;18.27;50.68
21623;BME280;10973;46.706;12.340;2022-08-01T07:02:44;87706.88;;;18.36;50.31
21623;BME280;10973;46.706;12.340;2022-08-01T07:05:12;87707.47;;;18.47;49.81
21623;BME280;10973;46.706;12.340;2022-08-01T07:07:42;87706.56;;;18.54;49.81
21623;BME280;10973;46.706;12.340;2022-08-01T07:10:10;87701.09;;;18.61;49.72
21623;BME280;10973;46.706;12.340;2022-08-01T07:12:38;87701.75;;;18.69;49.66
21623;BME280;10973;46.706;12.340;2022-08-01T07:15:10;87703.09;;;18.77;49.89
21623;BME280;10973;46.706;12.340;2022-08-01T07:17:40;87690.81;;;18.83;50.54
21623;BME280;10973;46.706;12.340;2022-08-01T07:20:12;87691.06;;;18.88;50.71
21623;BME280;10973;46.706;12.340;2022-08-01T07:22:42;87682.84;;;18.99;50.05
21623;BME280;10973;46.706;12.340;2022-08-01T07:25:13;87688.78;;;19.06;49.44
21623;BME280;10973;46.706;12.340;2022-08-01T07:27:41;87681.72;;;19.16;49.39
21623;BME280;10973;46.706;12.340;2022-08-01T07:30:09;87681.94;;;19.25;48.68
21623;BME280;10973;46.706;12.340;2022-08-01T07:32:37;87679.44;;;19.34;48.19
21623;BME280;10973;46.706;12.340;2022-08-01T07:35:04;87678.91;;;19.43;48.22
21623;BME280;10973;46.706;12.340;2022-08-01T07:37:32;87678.84;;;19.46;48.13
21623;BME280;10973;46.706;12.340;2022-08-01T07:40:17;87679.34;;;19.57;47.50
21623;BME280;10973;46.706;12.340;2022-08-01T07:42:45;87671.50;;;19.66;47.53
21623;BME280;10973;46.706;12.340;2022-08-01T07:45:13;87671.75;;;19.72;46.82
21623;BME280;10973;46.706;12.340;2022-08-01T07:47:46;87666.00;;;19.73;45.98
21623;BME280;10973;46.706;12.340;2022-08-01T07:50:13;87665.09;;;19.80;46.56
21623;BME280;10973;46.706;12.340;2022-08-01T07:52:40;87669.53;;;19.86;46.21
21623;BME280;10973;46.706;12.340;2022-08-01T07:55:11;87670.03;;;19.98;46.08
21623;BME280;10973;46.706;12.340;2022-08-01T07:57:42;87663.41;;;20.02;45.04
21623;BME280;10973;46.706;12.340;2022-08-01T08:00:10;87660.56;;;20.09;44.68
21623;BME280;10973;46.706;12.340;2022-08-01T08:02:37;87667.66;;;20.16;45.09
21623;BME280;10973;46.706;12.340;2022-08-01T08:05:27;87667.97;;;20.21;44.98
21623;BME280;10973;46.706;12.340;2022-08-01T08:08:14;87659.75;;;20.28;44.72
21623;BME280;10973;46.706;12.340;2022-08-01T08:10:41;87667.41;;;20.42;44.58
21623;BME280;10973;46.706;12.340;2022-08-01T08:13:08;87660.28;;;20.52;44.59
21623;BME280;10973;46.706;12.340;2022-08-01T08:15:36;87659.34;;;20.58;44.51
21623;BME280;10973;46.706;12.340;2022-08-01T08:18:05;87659.94;;;20.66;43.86
21623;BME280;10973;46.706;12.340;2022-08-01T08:20:32;87656.31;;;20.73;44.08
21623;BME280;10973;46.706;12.340;2022-08-01T08:22:59;87650.75;;;20.80;44.55
21623;BME280;10973;46.706;12.340;2022-08-01T08:25:27;87657.00;;;20.89;44.20
21623;BME280;10973;46.706;12.340;2022-08-01T08:27:54;87653.28;;;20.99;43.99
21623;BME280;10973;46.706;12.340;2022-08-01T08:30:22;87664.47;;;21.10;43.88
21623;BME280;10973;46.706;12.340;2022-08-01T08:32:49;87666.22;;;21.17;43.56
21623;BME280;10973;46.706;12.340;2022-08-01T08:35:16;87663.75;;;21.22;40.55
21623;BME280;10973;46.706;12.340;2022-08-01T08:38:04;87658.44;;;21.35;40.54
21623;BME280;10973;46.706;12.340;2022-08-01T08:40:35;87655.13;;;21.44;40.14
21623;BME280;10973;46.706;12.340;2022-08-01T08:43:05;87660.28;;;21.51;40.17
21623;BME280;10973;46.706;12.340;2022-08-01T08:45:33;87665.09;;;21.56;38.61
21623;BME280;10973;46.706;12.340;2022-08-01T08:48:21;87670.25;;;21.63;38.24
21623;BME280;10973;46.706;12.340;2022-08-01T08:50:55;87674.25;;;21.71;38.19
21623;BME280;10973;46.706;12.340;2022-08-01T08:53:23;87672.84;;;21.79;38.68
21623;BME280;10973;46.706;12.340;2022-08-01T08:56:02;87671.16;;;21.85;37.74
21623;BME280;10973;46.706;12.340;2022-08-01T08:58:30;87673.97;;;21.94;37.87
21623;BME280;10973;46.706;12.340;2022-08-01T09:00:59;87671.78;;;22.01;37.23
21623;BME280;10973;46.706;12.340;2022-08-01T09:03:26;87659.75;;;22.06;36.04
21623;BME280;10973;46.706;12.340;2022-08-01T09:06:02;87662.03;;;22.08;34.74
21623;BME280;10973;46.706;12.340;2022-08-01T09:08:29;87671.78;;;22.14;34.75
21623;BME280;10973;46.706;12.340;2022-08-01T09:11:10;87670.06;;;22.20;34.70
21623;BME280;10973;46.706;12.340;2022-08-01T09:14:17;87661.78;;;22.27;34.47
21623;BME280;10973;46.706;12.340;2022-08-01T09:16:45;87656.19;;;22.34;34.09
21623;BME280;10973;46.706;12.340;2022-08-01T09:19:19;87658.50;;;22.45;34.27
21623;BME280;10973;46.706;12.340;2022-08-01T09:22:12;87665.59;;;22.51;33.58
21623;BME280;10973;46.706;12.340;2022-08-01T09:24:41;87661.50;;;22.59;33.25
21623;BME280;10973;46.706;12.340;2022-08-01T09:27:20;87664.41;;;22.65;33.18
21623;BME280;10973;46.706;12.340;2022-08-01T09:29:51;87660.09;;;22.67;32.04
21623;BME280;10973;46.706;12.340;2022-08-01T09:32:30;87653.72;;;22.74;31.67
21623;BME280;10973;46.706;12.340;2022-08-01T09:35:27;87666.94;;;22.81;32.34
21623;BME280;10973;46.706;12.340;2022-08-01T09:38:24;87660.38;;;22.82;30.78
21623;BME280;10973;46.706;12.340;2022-08-01T09:40:55;87654.13;;;22.85;30.48
21623;BME280;10973;46.706;12.340;2022-08-01T09:43:27;87657.94;;;22.97;31.20
21623;BME280;10973;46.706;12.340;2022-08-01T09:45:58;87655.75;;;23.04;31.71
21623;BME280;10973;46.706;12.340;2022-08-01T09:48:26;87652.06;;;23.11;31.24
21623;BME280;10973;46.706;12.340;2022-08-01T09:50:58;87648.88;;;23.25;31.38
21623;BME280;10973;46.706;12.340;2022-08-01T09:53:48;87640.69;;;23.28;30.88
21623;BME280;10973;46.706;12.340;2022-08-01T09:56:20;87648.41;;;23.39;30.08
21623;BME280;10973;46.706;12.340;2022-08-01T09:58:57;87653.34;;;23.40;30.04
21623;BME280;10973;46.706;12.340;2022-08-01T10:01:42;87653.53;;;23.46;29.98
21623;BME280;10973;46.706;12.340;2022-08-01T10:04:19;87642.19;;;23.51;28.88
21623;BME280;10973;46.706;12.340;2022-08-01T10:06:50;87639.06;;;23.53;29.81
21623;BME280;10973;46.706;12.340;2022-08-01T10:09:31;87643.88;;;23.58;30.04
21623;BME280;10973;46.706;12.340;2022-08-01T10:12:09;87641.38;;;23.63;29.87
21623;BME280;10973;46.706;12.340;2022-08-01T10:14:44;87651.09;;;23.70;29.74
21623;BME280;10973;46.706;12.340;2022-08-01T10:17:15;87655.16;;;23.74;28.64
21623;BME280;10973;46.706;12.340;2022-08-01T10:19:46;87637.28;;;23.80;28.32
21623;BME280;10973;46.706;12.340;2022-08-01T10:22:16;87639.69;;;23.87;28.79
21623;BME280;10973;46.706;12.340;2022-08-01T10:24:47;87633.59;;;23.96;29.28
21623;BME280;10973;46.706;12.340;2022-08-01T10:27:16;87639.66;;;24.09;29.67
21623;BME280;10973;46.706;12.340;2022-08-01T10:30:05;87636.78;;;24.13;29.12
21623;BME280;10973;46.706;12.340;2022-08-01T10:32:51;87633.81;;;24.10;28.05
21623;BME280;10973;46.706;12.340;2022-08-01T10:35:19;87635.16;;;24.15;28.47
21623;BME280;10973;46.706;12.340;2022-08-01T10:38:07;87628.31;;;24.23;29.56
21623;BME280;10973;46.706;12.340;2022-08-01T10:40:37;87629.53;;;24.31;27.94
21623;BME280;10973;46.706;12.340;2022-08-01T10:43:08;87624.47;;;24.42;28.26
21623;BME280;10973;46.706;12.340;2022-08-01T10:45:36;87621.34;;;24.53;28.03
21623;BME280;10973;46.706;12.340;2022-08-01T10:48:14;87612.66;;;24.67;28.03
21623;BME280;10973;46.706;12.340;2022-08-01T10:50:51;87606.56;;;24.85;28.74
21623;BME280;10973;46.706;12.340;2022-08-01T10:53:25;87614.50;;;24.97;27.05
21623;BME280;10973;46.706;12.340;2022-08-01T10:56:08;87616.91;;;25.13;27.07
21623;BME280;10973;46.706;12.340;2022-08-01T10:58:43;87617.94;;;25.25;27.71
21623;BME280;10973;46.706;12.340;2022-08-01T11:01:26;87613.41;;;25.31;26.99
21623;BME280;10973;46.706;12.340;2022-08-01T11:04:10;87606.38;;;25.33;26.62
21623;BME280;10973;46.706;12.340;2022-08-01T11:07:03;87611.19;;;25.20;27.35
21623;BME280;10973;46.706;12.340;2022-08-01T11:09:46;87600.25;;;25.24;26.45
21623;BME280;10973;46.706;12.340;2022-08-01T11:12:18;87602.78;;;25.36;26.84
21623;BME280;10973;46.706;12.340;2022-08-01T11:17:40;87584.72;;;25.70;25.75
21623;BME280;10973;46.706;12.340;2022-08-01T11:20:21;87581.53;;;25.89;26.41
21623;BME280;10973;46.706;12.340;2022-08-01T11:28:27;87591.28;;;26.52;26.28
21623;BME280;10973;46.706;12.340;2022-08-01T11:41:41;87570.56;;;26.49;24.62
21623;BME280;10973;46.706;12.340;2022-08-01T11:44:16;87567.28;;;26.69;24.75
21623;BME280;10973;46.706;12.340;2022-08-01T11:46:58;87558.19;;;26.81;24.41
21623;BME280;10973;46.706;12.340;2022-08-01T11:52:07;87554.00;;;27.18;23.59
21623;BME280;10973;46.706;12.340;2022-08-01T11:54:41;87567.06;;;27.34;24.57
21623;BME280;10973;46.706;12.340;2022-08-01T11:57:27;87558.81;;;27.52;24.67
21623;BME280;10973;46.706;12.340;2022-08-01T12:00:12;87560.19;;;27.77;24.67
21623;BME280;10973;46.706;12.340;2022-08-01T12:02:45;87558.28;;;27.98;22.74
21623;BME280;10973;46.706;12.340;2022-08-01T12:05:16;87545.75;;;28.15;23.34
21623;BME280;10973;46.706;12.340;2022-08-01T12:07:49;87548.16;;;28.27;23.59
21623;BME280;10973;46.706;12.340;2022-08-01T12:10:19;87553.47;;;28.37;23.04
21623;BME280;10973;46.706;12.340;2022-08-01T12:12:59;87556.88;;;28.52;22.82
21623;BME280;10973;46.706;12.340;2022-08-01T12:15:33;87555.56;;;28.62;21.72
21623;BME280;10973;46.706;12.340;2022-08-01T12:18:04;87544.31;;;28.69;21.50
21623;BME280;10973;46.706;12.340;2022-08-01T12:20:38;87550.06;;;28.76;20.59
21623;BME280;10973;46.706;12.340;2022-08-01T12:23:22;87545.59;;;28.93;21.99
21623;BME280;10973;46.706;12.340;2022-08-01T12:25:52;87539.13;;;29.11;20.67
21623;BME280;10973;46.706;12.340;2022-08-01T12:28:21;87535.13;;;29.27;21.18
21623;BME280;10973;46.706;12.340;2022-08-01T12:30:49;87535.03;;;29.41;20.21
21623;BME280;10973;46.706;12.340;2022-08-01T12:33:22;87534.13;;;29.50;21.24
21623;BME280;10973;46.706;12.340;2022-08-01T12:35:50;87522.81;;;29.57;20.12
21623;BME280;10973;46.706;12.340;2022-08-01T12:38:22;87527.06;;;29.63;20.74
21623;BME280;10973;46.706;12.340;2022-08-01T12:40:50;87524.94;;;29.73;20.06
21623;BME280;10973;46.706;12.340;2022-08-01T12:43:22;87521.34;;;29.82;20.66
21623;BME280;10973;46.706;12.340;2022-08-01T12:45:58;87517.66;;;29.85;20.96
21623;BME280;10973;46.706;12.340;2022-08-01T12:48:27;87518.13;;;29.83;20.26
21623;BME280;10973;46.706;12.340;2022-08-01T12:50:58;87503.63;;;29.92;21.31
21623;BME280;10973;46.706;12.340;2022-08-01T12:53:26;87510.53;;;29.93;21.05
21623;BME280;10973;46.706;12.340;2022-08-01T12:56:09;87513.31;;;29.98;21.31
21623;BME280;10973;46.706;12.340;2022-08-01T12:58:37;87505.75;;;30.13;21.37
21623;BME280;10973;46.706;12.340;2022-08-01T13:01:10;87515.66;;;30.16;20.06
21623;BME280;10973;46.706;12.340;2022-08-01T13:03:38;87492.91;;;30.14;21.12
21623;BME280;10973;46.706;12.340;2022-08-01T13:06:14;87500.19;;;29.97;20.94
21623;BME280;10973;46.706;12.340;2022-08-01T13:08:44;87501.06;;;29.83;20.79
21623;BME280;10973;46.706;12.340;2022-08-01T13:11:14;87498.16;;;29.60;20.24
21623;BME280;10973;46.706;12.340;2022-08-01T13:13:50;87502.09;;;29.59;20.65
21623;BME280;10973;46.706;12.340;2022-08-01T13:16:26;87496.75;;;29.71;20.05
21623;BME280;10973;46.706;12.340;2022-08-01T13:19:13;87492.97;;;29.88;20.14
21623;BME280;10973;46.706;12.340;2022-08-01T13:21:57;87491.56;;;29.98;20.12
21623;BME280;10973;46.706;12.340;2022-08-01T13:24:29;87482.53;;;30.18;20.51
21623;BME280;10973;46.706;12.340;2022-08-01T13:27:02;87493.72;;;30.25;20.11
21623;BME280;10973;46.706;12.340;2022-08-01T13:29:39;87491.88;;;30.43;20.29
21623;BME280;10973;46.706;12.340;2022-08-01T13:32:13;87476.59;;;30.56;19.53
21623;BME280;10973;46.706;12.340;2022-08-01T13:35:08;87481.25;;;30.45;19.33
21623;BME280;10973;46.706;12.340;2022-08-01T13:37:37;87471.41;;;30.53;19.50
21623;BME280;10973;46.706;12.340;2022-08-01T13:40:07;87483.34;;;30.66;19.05
21623;BME280;10973;46.706;12.340;2022-08-01T13:42:36;87472.72;;;30.74;18.02
21623;BME280;10973;46.706;12.340;2022-08-01T13:45:05;87473.00;;;30.81;18.03
21623;BME280;10973;46.706;12.340;2022-08-01T13:47:42;87475.03;;;30.92;18.74
21623;BME280;10973;46.706;12.340;2022-08-01T13:50:30;87467.66;;;31.03;19.35